Time;durP1;ratioP1;P1;durP2;ratioP2;P2;SDS_P1;SDS_P2;PMS_P1;PMS_P2;Temp;Humidity;BMP_temperature;BMP_pressure;BME280_temperature;BME280_humidity;BME280_pressure;Samples;Min_cycle;Max_cycle;Signal;HPM_P1;HPM_P2
2023/04/22 00:00:25;;;;;;;7.80;5.72;;;11.50;99.90;;;;;;5056331;28;20084;-87
2023/04/22 00:02:51;;;;;;;8.43;5.50;;;11.40;99.90;;;;;;5073096;28;20078;-87
2023/04/22 00:05:17;;;;;;;8.17;5.50;;;11.40;99.90;;;;;;5073240;28;20496;-85
2023/04/22 00:07:43;;;;;;;8.15;5.75;;;11.30;99.90;;;;;;5072730;28;20119;-86
2023/04/22 00:10:12;;;;;;;8.90;5.60;;;11.20;99.90;;;;;;5072458;28;20183;-87
2023/04/22 00:12:37;;;;;;;6.70;5.55;;;12.00;99.90;;;;;;5072705;28;20472;-85
2023/04/22 00:15:04;;;;;;;8.13;5.50;;;11.00;99.90;;;;;;5055667;28;20041;-87
2023/04/22 00:17:29;;;;;;;8.98;5.72;;;11.00;99.90;;;;;;5071883;28;20044;-87
2023/04/22 00:19:55;;;;;;;8.13;5.22;;;11.70;99.90;;;;;;5055638;28;20049;-85
2023/04/22 00:22:21;;;;;;;8.60;5.82;;;11.00;99.90;;;;;;5072215;28;20103;-86
2023/04/22 00:24:47;;;;;;;9.23;5.78;;;10.90;99.90;;;;;;5055264;28;20205;-86
2023/04/22 00:27:13;;;;;;;8.00;5.70;;;10.90;99.90;;;;;;5072044;28;20119;-87
2023/04/22 00:29:38;;;;;;;9.13;5.25;;;10.80;99.90;;;;;;5072567;28;20080;-87
2023/04/22 00:32:04;;;;;;;6.13;5.20;;;11.30;99.90;;;;;;5072113;28;20086;-85
2023/04/22 00:34:30;;;;;;;9.68;5.90;;;10.80;99.90;;;;;;5072214;28;20111;-85
2023/04/22 00:36:56;;;;;;;7.05;5.90;;;10.70;99.90;;;;;;5075827;28;20041;-85
2023/04/22 00:39:21;;;;;;;9.05;5.40;;;10.70;99.90;;;;;;5058793;28;20055;-85
2023/04/22 00:41:48;;;;;;;8.90;5.32;;;10.70;99.90;;;;;;5059285;28;20048;-85
2023/04/22 00:44:13;;;;;;;8.68;5.68;;;10.70;99.90;;;;;;5059148;28;20044;-85
2023/04/22 00:46:39;;;;;;;8.38;6.20;;;10.00;99.90;;;;;;5075848;28;20047;-87
2023/04/22 00:49:06;;;;;;;9.75;6.75;;;10.50;99.90;;;;;;5075334;28;20488;-86
2023/04/22 00:51:32;;;;;;;;;;;10.80;99.90;;;;;;5077068;28;20056;-85
2023/04/22 00:54:00;;;;;;;8.57;5.57;;;10.60;99.90;;;;;;5076608;28;19965;-86
2023/04/22 00:56:27;;;;;;;8.60;6.30;;;10.50;99.90;;;;;;5074923;28;20036;-86
2023/04/22 00:58:53;;;;;;;9.45;6.18;;;10.40;99.90;;;;;;5075217;28;20048;-85
2023/04/22 01:01:19;;;;;;;9.67;6.03;;;10.80;99.90;;;;;;5076554;28;20045;-85
2023/04/22 01:03:47;;;;;;;9.80;6.13;;;10.40;99.90;;;;;;5076345;28;20166;-85
2023/04/22 01:06:13;;;;;;;8.48;6.15;;;10.40;99.90;;;;;;5075275;28;20045;-87
2023/04/22 01:08:39;;;;;;;9.18;6.60;;;11.00;99.90;;;;;;5075785;28;20213;-85
2023/04/22 01:11:05;;;;;;;10.57;6.90;;;10.40;99.90;;;;;;5058906;28;20055;-86
2023/04/22 01:13:31;;;;;;;8.03;6.00;;;10.40;99.90;;;;;;5058852;28;20047;-85
2023/04/22 01:15:59;;;;;;;8.10;6.60;;;10.20;99.90;;;;;;5058899;28;20041;-86
2023/04/22 01:18:25;;;;;;;8.00;6.15;;;10.30;99.90;;;;;;5076370;28;20056;-86
2023/04/22 01:20:51;;;;;;;9.00;6.03;;;10.20;99.90;;;;;;5075150;28;20049;-84
2023/04/22 01:23:21;;;;;;;8.63;5.90;;;10.60;99.90;;;;;;5058591;28;20412;-86
2023/04/22 01:25:47;;;;;;;8.82;6.55;;;10.20;99.90;;;;;;5058496;28;20048;-86
2023/04/22 01:28:15;;;;;;;10.93;6.38;;;9.90;99.90;;;;;;5058958;28;20422;-85
2023/04/22 01:30:41;;;;;;;8.65;5.90;;;10.40;99.90;;;;;;5075990;28;20415;-85
2023/04/22 01:33:08;;;;;;;8.90;6.45;;;10.90;99.90;;;;;;5075006;28;20127;-88
2023/04/22 01:35:35;;;;;;;8.20;6.03;;;10.10;99.90;;;;;;5074570;28;20045;-87
2023/04/22 01:38:06;;;;;;;8.43;6.47;;;10.10;99.90;;;;;;5074878;28;20032;-87
2023/04/22 01:40:32;;;;;;;11.43;6.75;;;10.10;99.90;;;;;;5074871;28;20048;-85
2023/04/22 01:42:59;;;;;;;9.13;6.50;;;10.00;99.90;;;;;;5074742;28;20127;-85
2023/04/22 01:45:28;;;;;;;;;;;10.30;99.90;;;;;;5058512;28;20481;-85
2023/04/22 01:47:54;;;;;;;11.25;6.43;;;10.00;99.90;;;;;;5073842;28;19940;-85
2023/04/22 01:50:21;;;;;;;9.00;6.60;;;9.90;99.90;;;;;;5076042;28;20053;-85
2023/04/22 01:52:47;;;;;;;9.13;6.30;;;9.00;99.90;;;;;;5075783;28;20515;-85
2023/04/22 01:55:13;;;;;;;8.23;6.20;;;9.90;99.90;;;;;;5075518;28;20079;-87
2023/04/22 01:57:39;;;;;;;9.18;6.53;;;10.50;99.90;;;;;;5057882;28;20052;-84
2023/04/22 02:00:05;;;;;;;8.05;6.15;;;8.80;99.90;;;;;;5074638;28;20063;-85
2023/04/22 02:02:31;;;;;;;9.15;6.80;;;9.70;99.90;;;;;;5075015;28;20098;-86
2023/04/22 02:04:56;;;;;;;10.70;7.38;;;10.50;99.90;;;;;;5074147;28;20431;-84
2023/04/22 02:07:22;;;;;;;9.40;6.32;;;9.60;99.90;;;;;;5075171;28;20442;-86
2023/04/22 02:09:49;;;;;;;11.70;7.43;;;9.50;99.90;;;;;;5075234;28;20544;-86
2023/04/22 02:12:14;;;;;;;11.07;7.20;;;9.60;99.90;;;;;;5057302;28;20047;-85
2023/04/22 02:14:40;;;;;;;9.55;6.82;;;9.50;99.90;;;;;;5057139;28;20044;-88
2023/04/22 02:17:05;;;;;;;9.75;6.75;;;9.50;99.90;;;;;;5073806;28;20468;-85
2023/04/22 02:19:31;;;;;;;11.48;7.22;;;9.50;99.90;;;;;;5074015;28;20045;-84
2023/04/22 02:21:57;;;;;;;13.35;7.38;;;9.50;99.90;;;;;;5077481;28;20044;-84
2023/04/22 02:24:23;;;;;;;11.27;7.78;;;9.30;99.90;;;;;;5080781;28;20084;-84
2023/04/22 02:26:48;;;;;;;10.10;7.45;;;9.70;99.90;;;;;;5079619;28;20057;-84
2023/04/22 02:29:17;;;;;;;11.15;7.68;;;9.50;99.90;;;;;;5076812;28;20542;-86
2023/04/22 02:31:43;;;;;;;11.95;7.65;;;8.80;99.90;;;;;;5073272;28;20051;-86
2023/04/22 02:34:08;;;;;;;11.88;7.55;;;9.50;99.90;;;;;;5056996;28;20439;-88
2023/04/22 02:36:34;;;;;;;10.50;7.72;;;9.50;99.90;;;;;;5056859;28;20496;-84
2023/04/22 02:39:02;;;;;;;11.10;7.90;;;9.50;99.90;;;;;;5056950;28;20051;-85
2023/04/22 02:41:28;;;;;;;11.07;8.07;;;10.00;99.90;;;;;;5074589;28;20436;-88
2023/04/22 02:43:53;;;;;;;9.52;7.60;;;9.40;99.90;;;;;;5057352;28;20040;-84
2023/04/22 02:46:19;;;;;;;12.95;7.65;;;9.40;99.90;;;;;;5056925;28;20052;-87
2023/04/22 02:48:44;;;;;;;11.23;7.72;;;9.30;99.90;;;;;;5072878;28;20086;-84
2023/04/22 02:51:10;;;;;;;10.80;7.28;;;10.30;99.90;;;;;;5056750;28;20044;-84
2023/04/22 02:53:36;;;;;;;12.02;8.43;;;9.30;99.90;;;;;;5073242;28;20469;-84
2023/04/22 02:56:02;;;;;;;11.38;7.82;;;9.30;99.90;;;;;;5056863;28;20095;-85
2023/04/22 02:58:28;;;;;;;10.20;7.88;;;9.20;99.90;;;;;;5073011;28;20048;-87
2023/04/22 03:00:55;;;;;;;10.80;7.63;;;9.10;99.90;;;;;;5057122;28;20041;-88
2023/04/22 03:03:21;;;;;;;10.57;7.72;;;9.10;99.90;;;;;;5056494;28;20048;-85
2023/04/22 03:05:47;;;;;;;11.63;8.65;;;9.40;99.90;;;;;;5073099;28;20381;-83
2023/04/22 03:08:12;;;;;;;10.60;7.43;;;9.30;99.90;;;;;;5056682;28;20098;-86
2023/04/22 03:10:38;;;;;;;11.18;7.80;;;8.60;99.90;;;;;;5073265;28;20171;-84
2023/04/22 03:13:04;;;;;;;11.60;8.70;;;9.10;99.90;;;;;;5072937;28;20040;-86
2023/04/22 03:15:29;;;;;;;12.93;8.27;;;9.00;99.90;;;;;;5056266;28;20082;-86
2023/04/22 03:17:55;;;;;;;13.15;8.02;;;9.00;99.90;;;;;;5072968;28;20086;-87
2023/04/22 03:20:21;;;;;;;12.50;8.93;;;8.80;99.90;;;;;;5056258;28;20043;-87
2023/04/22 03:22:46;;;;;;;15.38;8.27;;;8.90;99.90;;;;;;5072766;28;20056;-86
2023/04/22 03:25:12;;;;;;;12.95;8.55;;;8.90;99.90;;;;;;5072692;28;20048;-86
2023/04/22 03:27:38;;;;;;;12.32;8.52;;;8.90;99.90;;;;;;5072929;28;20087;-86
2023/04/22 03:30:04;;;;;;;11.15;8.10;;;8.90;99.90;;;;;;5073050;28;20052;-85
2023/04/22 03:32:30;;;;;;;11.35;7.97;;;8.90;99.90;;;;;;5072864;28;20503;-87
2023/04/22 03:34:56;;;;;;;11.90;7.93;;;8.80;99.90;;;;;;5072556;28;20037;-87
2023/04/22 03:37:21;;;;;;;9.98;8.18;;;8.70;99.90;;;;;;5073657;28;20044;-86
2023/04/22 03:39:47;;;;;;;12.63;7.93;;;8.60;99.90;;;;;;5056178;28;20043;-84
2023/04/22 03:42:13;;;;;;;12.02;8.02;;;8.60;99.90;;;;;;5056245;28;20173;-85
2023/04/22 03:44:39;;;;;;;12.30;8.13;;;8.60;99.90;;;;;;5056180;28;20396;-87
2023/04/22 03:47:05;;;;;;;12.52;8.20;;;8.50;99.90;;;;;;5055784;28;20044;-84
2023/04/22 03:49:31;;;;;;;11.90;7.75;;;8.00;99.90;;;;;;5072474;28;20048;-84
2023/04/22 03:51:56;;;;;;;10.20;7.55;;;9.20;99.90;;;;;;5072716;28;20388;-86
2023/04/22 03:54:23;;;;;;;9.63;7.63;;;8.30;99.90;;;;;;5074176;28;20119;-85
2023/04/22 03:56:49;;;;;;;10.50;7.65;;;8.40;99.90;;;;;;5075019;28;20052;-84
2023/04/22 03:59:16;;;;;;;9.40;7.47;;;8.40;99.90;;;;;;5074196;28;20472;-86
2023/04/22 04:01:41;;;;;;;11.70;8.43;;;8.30;99.90;;;;;;5075627;28;20044;-84
2023/04/22 04:04:07;;;;;;;9.48;7.35;;;8.30;99.90;;;;;;5075001;28;20044;-85
2023/04/22 04:06:33;;;;;;;10.73;7.90;;;8.30;99.90;;;;;;5076312;28;20080;-86
2023/04/22 04:09:00;;;;;;;10.35;7.95;;;8.20;99.90;;;;;;5076273;28;20052;-84
2023/04/22 04:11:26;;;;;;;12.75;8.85;;;8.20;99.90;;;;;;5078751;28;20059;-83
2023/04/22 04:13:51;;;;;;;12.60;8.65;;;9.40;99.90;;;;;;5078634;28;20465;-85
2023/04/22 04:16:17;;;;;;;12.13;8.48;;;8.00;99.90;;;;;;5080086;28;20045;-87
2023/04/22 04:18:43;;;;;;;12.35;8.88;;;8.10;99.90;;;;;;5080761;28;20045;-86
2023/04/22 04:21:08;;;;;;;12.20;8.00;;;8.10;99.90;;;;;;5079929;28;20090;-84
2023/04/22 04:23:34;;;;;;;17.38;9.75;;;8.10;99.90;;;;;;5077337;28;20053;-85
2023/04/22 04:26:01;;;;;;;15.77;11.05;;;8.00;99.90;;;;;;5059793;28;20040;-85
2023/04/22 04:28:31;;;;;;;15.98;11.32;;;8.10;99.90;;;;;;5059436;28;20047;-84
2023/04/22 04:30:58;;;;;;;19.30;12.07;;;8.50;99.90;;;;;;5077404;28;20049;-85
2023/04/22 04:33:24;;;;;;;17.75;11.68;;;8.10;99.90;;;;;;5076652;28;20040;-85
2023/04/22 04:35:50;;;;;;;19.17;11.95;;;8.10;99.90;;;;;;5059192;28;20139;-86
2023/04/22 04:38:16;;;;;;;19.63;12.52;;;8.10;99.90;;;;;;5058703;28;20040;-86
2023/04/22 04:40:44;;;;;;;23.95;13.52;;;8.10;99.90;;;;;;5075791;28;20036;-85
2023/04/22 04:43:11;;;;;;;17.30;12.98;;;8.10;99.90;;;;;;5075589;28;20053;-85
2023/04/22 04:45:38;;;;;;;20.10;13.02;;;8.20;99.90;;;;;;5075571;28;20127;-86
2023/04/22 04:48:05;;;;;;;17.73;12.55;;;8.40;99.90;;;;;;5076532;28;20443;-85
2023/04/22 04:50:32;;;;;;;18.92;13.57;;;8.30;99.90;;;;;;5075012;28;20067;-85
2023/04/22 04:52:57;;;;;;;18.65;13.27;;;8.30;99.90;;;;;;5076823;28;20377;-86
2023/04/22 04:55:23;;;;;;;20.08;13.10;;;8.40;99.90;;;;;;5075135;28;20051;-85
2023/04/22 04:57:49;;;;;;;20.23;13.48;;;8.50;99.90;;;;;;5076199;28;20055;-86
2023/04/22 05:00:14;;;;;;;19.40;13.82;;;8.60;99.90;;;;;;5076706;28;20047;-85
2023/04/22 05:02:40;;;;;;;20.10;13.93;;;8.70;99.90;;;;;;5075325;28;20048;-87
2023/04/22 05:05:07;;;;;;;19.15;12.93;;;9.70;99.90;;;;;;5058669;28;20136;-87
2023/04/22 05:07:33;;;;;;;19.50;14.30;;;8.80;99.90;;;;;;5076333;28;20115;-85
2023/04/22 05:09:59;;;;;;;19.80;13.88;;;8.90;99.90;;;;;;5058655;28;20056;-85
2023/04/22 05:12:25;;;;;;;17.58;13.43;;;8.90;99.90;;;;;;5058349;28;20078;-85
2023/04/22 05:14:54;;;;;;;20.58;14.05;;;9.30;99.90;;;;;;5058732;28;20040;-86
2023/04/22 05:17:20;;;;;;;20.48;14.35;;;9.10;99.90;;;;;;5076478;28;20098;-86
2023/04/22 05:19:45;;;;;;;19.13;13.77;;;9.10;99.90;;;;;;5076549;28;20044;-85
2023/04/22 05:22:11;;;;;;;21.55;13.38;;;9.20;99.90;;;;;;5058662;28;20048;-86
2023/04/22 05:24:36;;;;;;;19.95;13.48;;;9.30;99.90;;;;;;5074649;28;20047;-86
2023/04/22 05:27:02;;;;;;;17.13;13.48;;;9.20;99.90;;;;;;5074629;28;20045;-86
2023/04/22 05:29:28;;;;;;;19.10;13.57;;;9.40;99.90;;;;;;5058478;28;20546;-85
2023/04/22 05:31:54;;;;;;;18.52;12.77;;;9.40;99.90;;;;;;5075768;28;20497;-86
2023/04/22 05:34:19;;;;;;;17.63;12.85;;;9.50;99.90;;;;;;5057765;28;20040;-87
2023/04/22 05:36:45;;;;;;;19.05;13.15;;;9.50;99.90;;;;;;5053119;28;20048;-85
2023/04/22 05:39:11;;;;;;;17.35;12.63;;;9.60;99.90;;;;;;5065770;28;20048;-85
2023/04/22 05:41:37;;;;;;;18.33;12.85;;;9.30;99.90;;;;;;5055277;28;20098;-85
2023/04/22 05:44:03;;;;;;;18.33;12.63;;;9.70;99.90;;;;;;5054539;28;20040;-86
2023/04/22 05:46:28;;;;;;;16.42;12.93;;;9.70;99.90;;;;;;5054851;28;20049;-88
2023/04/22 05:48:55;;;;;;;17.63;12.70;;;9.80;99.90;;;;;;5054352;28;20060;-85
2023/04/22 05:51:22;;;;;;;18.50;12.40;;;9.80;99.90;;;;;;5068408;28;20137;-87
2023/04/22 05:53:48;;;;;;;18.60;12.77;;;9.80;99.90;;;;;;5081569;28;20051;-83
2023/04/22 05:56:14;;;;;;;17.85;12.27;;;9.90;99.90;;;;;;5063446;28;20044;-87
2023/04/22 05:58:39;;;;;;;18.00;12.43;;;10.40;99.90;;;;;;5066656;28;20048;-87
2023/04/22 06:01:08;;;;;;;16.63;11.17;;;9.90;99.90;;;;;;5087831;28;20044;-88
2023/04/22 06:03:42;;;;;;;16.77;12.63;;;10.00;99.90;;;;;;5080001;28;20051;-89
2023/04/22 06:06:07;;;;;;;17.55;12.10;;;10.00;99.90;;;;;;5075138;28;20465;-88
2023/04/22 06:08:33;;;;;;;16.55;12.65;;;10.10;99.90;;;;;;5058504;28;20051;-87
2023/04/22 06:10:59;;;;;;;17.60;12.18;;;10.00;99.90;;;;;;5058262;28;20044;-84
2023/04/22 06:13:33;;;;;;;16.73;11.98;;;11.30;99.90;;;;;;5058070;28;20089;-89
2023/04/22 06:16:03;;;;;;;19.33;12.33;;;9.70;99.90;;;;;;5074243;28;20041;-86
2023/04/22 06:18:31;;;;;;;16.95;12.32;;;10.20;99.90;;;;;;5057192;28;20054;-88
2023/04/22 06:20:57;;;;;;;15.75;11.45;;;10.30;99.90;;;;;;5057694;28;20173;-89
2023/04/22 06:23:23;;;;;;;17.02;12.02;;;10.30;99.90;;;;;;5057090;28;20051;-90
2023/04/22 06:25:48;;;;;;;14.65;11.20;;;10.40;99.90;;;;;;5074664;28;20048;-87
2023/04/22 06:28:14;;;;;;;13.65;10.30;;;10.40;99.90;;;;;;5073459;28;20041;-86
2023/04/22 06:30:39;;;;;;;15.38;10.40;;;10.90;99.90;;;;;;5073065;28;20443;-87
2023/04/22 06:33:05;;;;;;;14.55;10.95;;;10.50;99.90;;;;;;5074064;28;20128;-86
2023/04/22 06:35:31;;;;;;;15.73;11.05;;;10.50;99.90;;;;;;5057168;28;20498;-89
2023/04/22 06:37:57;;;;;;;16.13;11.02;;;10.50;99.90;;;;;;5073750;28;20047;-88
2023/04/22 06:40:22;;;;;;;15.90;11.40;;;9.80;99.90;;;;;;5074105;28;20052;-84
2023/04/22 06:42:48;;;;;;;18.35;11.68;;;10.70;99.90;;;;;;5073780;28;20048;-83
2023/04/22 06:45:14;;;;;;;15.45;11.52;;;11.30;99.90;;;;;;5056813;28;20040;-88
2023/04/22 06:47:40;;;;;;;15.07;11.95;;;11.50;99.90;;;;;;5055889;28;20045;-86
2023/04/22 06:50:09;;;;;;;15.23;10.70;;;10.90;99.90;;;;;;5056214;28;20060;-83
2023/04/22 06:52:35;;;;;;;15.30;11.55;;;10.90;99.90;;;;;;5072988;28;20059;-86
2023/04/22 06:55:02;;;;;;;13.98;10.57;;;11.50;99.90;;;;;;5072572;28;20040;-84
2023/04/22 06:57:28;;;;;;;;;;;11.00;99.90;;;;;;5074411;28;20052;-83
2023/04/22 06:59:54;;;;;;;15.90;11.07;;;11.10;99.90;;;;;;5073397;28;19924;-87
2023/04/22 07:02:20;;;;;;;16.70;11.25;;;11.20;99.90;;;;;;5074314;28;20044;-87
2023/04/22 07:04:45;;;;;;;15.87;11.57;;;11.20;99.90;;;;;;5074181;28;20087;-84
2023/04/22 07:07:11;;;;;;;14.48;10.73;;;11.30;99.90;;;;;;5073016;28;20315;-88
2023/04/22 07:09:37;;;;;;;15.32;10.25;;;11.20;99.90;;;;;;5072819;28;20380;-83
2023/04/22 07:12:03;;;;;;;14.35;10.50;;;12.00;99.90;;;;;;5074612;28;20055;-88
2023/04/22 07:14:29;;;;;;;13.38;9.82;;;11.40;99.90;;;;;;5055799;28;20508;-85
2023/04/22 07:16:55;;;;;;;16.45;10.35;;;11.50;99.90;;;;;;5072472;28;20079;-85
2023/04/22 07:19:20;;;;;;;13.63;9.27;;;11.50;99.90;;;;;;5072927;28;20045;-85
2023/04/22 07:21:46;;;;;;;15.68;9.88;;;11.60;99.90;;;;;;5073746;28;20067;-88
2023/04/22 07:24:12;;;;;;;13.45;9.05;;;12.00;99.90;;;;;;5072564;28;20128;-82
2023/04/22 07:26:41;;;;;;;15.75;11.23;;;11.50;99.90;;;;;;5073768;28;20051;-81
2023/04/22 07:29:07;;;;;;;13.73;9.85;;;11.80;99.90;;;;;;5073682;28;20041;-82
2023/04/22 07:31:34;;;;;;;16.20;9.43;;;11.90;99.90;;;;;;5073670;28;20066;-81
2023/04/22 07:34:00;;;;;;;14.30;9.52;;;12.00;99.90;;;;;;5073195;28;20400;-82
2023/04/22 07:36:26;;;;;;;15.63;9.50;;;12.10;99.90;;;;;;5073900;28;20050;-88
2023/04/22 07:38:51;;;;;;;13.67;9.47;;;12.30;99.90;;;;;;5072320;28;20045;-79
2023/04/22 07:41:17;;;;;;;13.38;9.52;;;12.70;99.90;;;;;;5073641;28;20040;-85
2023/04/22 07:43:43;;;;;;;13.48;9.38;;;12.40;99.90;;;;;;5073499;28;20493;-80
2023/04/22 07:46:08;;;;;;;11.65;8.82;;;12.40;99.90;;;;;;5073746;28;20090;-84
2023/04/22 07:48:34;;;;;;;13.50;9.70;;;13.10;99.90;;;;;;5076408;28;20044;-84
2023/04/22 07:51:00;;;;;;;11.35;8.82;;;12.70;99.90;;;;;;5075773;28;20053;-85
2023/04/22 07:53:25;;;;;;;12.83;9.00;;;12.80;99.90;;;;;;5059516;28;20048;-85
2023/04/22 07:55:51;;;;;;;14.23;8.30;;;13.00;99.90;;;;;;5059755;28;20137;-85
2023/04/22 07:58:16;;;;;;;12.50;9.38;;;13.20;99.90;;;;;;5076157;28;20040;-86
2023/04/22 08:00:42;;;;;;;13.73;8.18;;;13.60;99.90;;;;;;5076138;28;20063;-85
2023/04/22 08:03:08;;;;;;;11.75;7.55;;;14.20;99.90;;;;;;5059840;28;20067;-84
2023/04/22 08:05:33;;;;;;;12.20;8.55;;;14.20;99.90;;;;;;5060331;28;20045;-86
2023/04/22 08:07:59;;;;;;;11.65;7.85;;;13.50;99.90;;;;;;5075922;28;20045;-78
2023/04/22 08:10:25;;;;;;;10.77;9.02;;;13.80;99.90;;;;;;5077224;28;20048;-77
2023/04/22 08:12:50;;;;;;;12.03;8.20;;;14.00;99.90;;;;;;5076155;28;20139;-85
2023/04/22 08:15:16;;;;;;;10.50;8.10;;;14.30;99.90;;;;;;5078432;28;20044;-89
2023/04/22 08:17:42;;;;;;;10.77;7.47;;;14.60;99.90;;;;;;5075450;28;20047;-86
2023/04/22 08:20:08;;;;;;;10.23;7.00;;;14.90;99.90;;;;;;5059476;28;20226;-86
2023/04/22 08:22:34;;;;;;;9.07;7.07;;;15.20;99.90;;;;;;5076280;28;20040;-84
2023/04/22 08:25:00;;;;;;;9.50;6.63;;;16.30;99.90;;;;;;5076159;28;20048;-83
2023/04/22 08:27:25;;;;;;;11.43;6.78;;;15.80;99.90;;;;;;5075263;28;20416;-83
2023/04/22 08:29:51;;;;;;;12.45;7.38;;;15.80;99.90;;;;;;5073946;28;20051;-84
2023/04/22 08:32:18;;;;;;;8.82;6.90;;;15.30;99.90;;;;;;5076383;28;20045;-84
2023/04/22 08:34:44;;;;;;;8.95;7.28;;;16.20;99.90;;;;;;5077372;28;20051;-83
2023/04/22 08:37:10;;;;;;;10.98;7.63;;;16.40;99.90;;;;;;5076777;28;20056;-84
2023/04/22 08:39:36;;;;;;;8.90;6.53;;;14.40;99.90;;;;;;5076681;28;20040;-83
2023/04/22 08:42:02;;;;;;;8.25;6.65;;;15.00;99.90;;;;;;5076584;28;20048;-83
2023/04/22 08:44:29;;;;;;;9.93;6.38;;;15.70;99.90;;;;;;5075230;28;20044;-84
2023/04/22 08:46:55;;;;;;;7.95;6.30;;;15.80;99.90;;;;;;5076571;28;20499;-83
2023/04/22 08:49:22;;;;;;;8.73;6.25;;;15.90;99.90;;;;;;5075851;28;20078;-83
2023/04/22 08:51:48;;;;;;;9.73;6.75;;;15.90;99.90;;;;;;5076444;28;20052;-84
2023/04/22 08:54:15;;;;;;;8.25;6.30;;;16.00;99.90;;;;;;5075270;28;20044;-83
2023/04/22 08:56:43;;;;;;;9.90;6.15;;;16.60;99.90;;;;;;5075983;28;20044;-84
2023/04/22 08:59:10;;;;;;;9.23;6.63;;;16.20;99.90;;;;;;5076164;28;20044;-84
2023/04/22 09:01:38;;;;;;;10.40;6.03;;;16.20;99.90;;;;;;5075017;28;20564;-83
2023/04/22 09:04:05;;;;;;;7.65;5.82;;;16.30;99.90;;;;;;5076444;28;20097;-81
2023/04/22 09:06:32;;;;;;;8.27;6.43;;;16.60;99.90;;;;;;5075299;28;20127;-82
2023/04/22 09:09:00;;;;;;;7.70;6.03;;;16.70;99.90;;;;;;5075883;28;20040;-82
2023/04/22 09:11:26;;;;;;;9.63;6.10;;;16.80;99.90;;;;;;5076039;28;20087;-81
2023/04/22 09:13:53;;;;;;;7.50;5.90;;;16.90;99.90;;;;;;5075786;28;20099;-82
2023/04/22 09:16:19;;;;;;;7.25;5.68;;;16.90;99.90;;;;;;5076651;28;20062;-83
2023/04/22 09:18:44;;;;;;;8.30;6.00;;;17.00;99.90;;;;;;5076054;28;20489;-82
2023/04/22 09:21:10;;;;;;;7.13;5.53;;;17.10;99.90;;;;;;5076168;28;20044;-82
2023/04/22 09:23:51;;;;;;;9.27;5.73;;;17.20;99.90;;;;;;5076435;28;20052;-82
2023/04/22 09:26:21;;;;;;;9.13;5.35;;;17.20;99.90;;;;;;5075032;28;20551;-82
2023/04/22 09:28:55;;;;;;;9.15;4.57;;;17.30;99.90;;;;;;5074999;28;20040;-82
2023/04/22 09:31:21;;;;;;;8.43;5.50;;;17.60;99.90;;;;;;5076255;28;20400;-81
2023/04/22 09:33:58;;;;;;;6.03;4.93;;;17.10;99.90;;;;;;5075781;28;20109;-83
2023/04/22 09:36:27;;;;;;;5.78;4.53;;;17.70;99.90;;;;;;5076023;28;20279;-82
2023/04/22 09:38:58;;;;;;;7.43;4.63;;;17.80;99.90;;;;;;5074697;28;20170;-82
2023/04/22 09:41:37;;;;;;;5.47;4.20;;;18.20;99.90;;;;;;5076084;28;20048;-83
2023/04/22 09:44:07;;;;;;;6.93;4.28;;;18.00;99.90;;;;;;5075573;28;20040;-82
2023/04/22 09:46:34;;;;;;;8.00;4.65;;;18.10;99.90;;;;;;5075506;28;20044;-81
2023/04/22 09:49:00;;;;;;;6.07;4.65;;;18.20;99.90;;;;;;5075307;28;20088;-82
2023/04/22 09:51:26;;;;;;;6.57;4.23;;;18.10;99.90;;;;;;5074372;28;20044;-83
2023/04/22 09:53:59;;;;;;;;;;;18.20;99.90;;;;;;5075312;28;20488;-82
2023/04/22 09:56:47;;;;;;;7.18;4.53;;;18.40;99.90;;;;;;5075186;28;20015;-83
2023/04/22 09:59:33;;;;;;;6.35;4.70;;;18.40;99.90;;;;;;5073625;28;20049;-82
2023/04/22 10:02:02;;;;;;;6.75;5.03;;;18.50;99.90;;;;;;5074734;28;20129;-82
2023/04/22 10:04:28;;;;;;;9.02;4.70;;;18.60;99.90;;;;;;5057484;28;20452;-82
2023/04/22 10:06:55;;;;;;;6.73;4.77;;;18.70;99.90;;;;;;5074778;28;20125;-82
2023/04/22 10:09:22;;;;;;;6.35;4.65;;;18.70;99.90;;;;;;5074205;28;20040;-82
2023/04/22 10:11:51;;;;;;;6.57;5.03;;;18.70;99.90;;;;;;5074165;28;20099;-83
2023/04/22 10:14:16;;;;;;;6.30;4.93;;;18.80;99.90;;;;;;5074654;28;20048;-83
2023/04/22 10:16:45;;;;;;;6.07;4.80;;;18.80;99.90;;;;;;5073719;28;20036;-83
2023/04/22 10:19:16;;;;;;;7.95;4.95;;;18.90;99.90;;;;;;5074829;28;20127;-83
2023/04/22 10:21:44;;;;;;;7.13;4.78;;;19.00;99.90;;;;;;5073714;28;20127;-83
2023/04/22 10:24:17;;;;;;;7.40;5.20;;;18.80;99.90;;;;;;5073799;28;20053;-83
2023/04/22 10:26:56;;;;;;;7.95;5.00;;;18.90;99.90;;;;;;5073455;28;20044;-83
2023/04/22 10:29:24;;;;;;;7.88;5.10;;;19.10;99.90;;;;;;5073392;28;20040;-84
2023/04/22 10:32:04;;;;;;;6.18;5.03;;;19.10;99.90;;;;;;5074550;28;20055;-83
2023/04/22 10:34:31;;;;;;;7.18;4.90;;;19.20;99.90;;;;;;5073240;28;20560;-83
2023/04/22 10:36:57;;;;;;;7.15;5.10;;;19.30;99.90;;;;;;5073745;28;20044;-83
2023/04/22 10:39:23;;;;;;;7.33;5.57;;;19.40;99.90;;;;;;5073146;28;20067;-83
2023/04/22 10:42:11;;;;;;;8.38;5.93;;;19.60;99.90;;;;;;5074277;28;20048;-83
2023/04/22 10:44:51;;;;;;;6.95;5.13;;;19.80;99.90;;;;;;5073373;28;20053;-83
2023/04/22 10:47:37;;;;;;;7.60;5.38;;;20.00;99.90;;;;;;5074174;28;20048;-83
2023/04/22 10:50:10;;;;;;;6.05;5.00;;;19.80;99.90;;;;;;5073182;28;20056;-83
2023/04/22 10:52:36;;;;;;;7.00;5.10;;;19.80;99.90;;;;;;5074128;28;20045;-83
2023/04/22 10:55:03;;;;;;;6.43;4.60;;;20.10;99.90;;;;;;5073002;28;20041;-83
2023/04/22 10:57:36;;;;;;;5.75;4.60;;;20.00;99.90;;;;;;5056526;28;20072;-84
2023/04/22 11:00:18;;;;;;;8.90;5.22;;;20.10;99.90;;;;;;5073198;28;20048;-83
2023/04/22 11:02:45;;;;;;;10.75;5.07;;;20.30;99.90;;;;;;5074118;28;20496;-83
2023/04/22 11:05:19;;;;;;;6.40;4.63;;;20.50;99.90;;;;;;5073960;28;20094;-84
2023/04/22 11:07:46;;;;;;;6.38;4.60;;;20.50;99.90;;;;;;5073982;28;20435;-83
2023/04/22 11:10:33;;;;;;;9.25;4.90;;;20.50;99.90;;;;;;5073022;28;20113;-83
2023/04/22 11:13:01;;;;;;;7.05;5.57;;;20.40;99.90;;;;;;5072653;28;20078;-83
2023/04/22 11:15:28;;;;;;;8.55;5.05;;;20.50;99.90;;;;;;5073784;28;20523;-83
2023/04/22 11:17:54;;;;;;;5.93;4.93;;;20.50;99.90;;;;;;5073760;28;20086;-83
2023/04/22 11:20:21;;;;;;;8.03;5.17;;;20.50;99.90;;;;;;5072724;28;20044;-84
2023/04/22 11:22:55;;;;;;;6.72;4.82;;;20.60;99.90;;;;;;5073797;28;20854;-84
2023/04/22 11:25:22;;;;;;;8.52;4.95;;;20.80;99.90;;;;;;5072772;28;20053;-83
2023/04/22 11:27:48;;;;;;;6.90;4.53;;;20.80;99.90;;;;;;5056149;28;20056;-83
2023/04/22 11:30:22;;;;;;;7.20;4.00;;;21.20;99.90;;;;;;5056017;28;20047;-84
2023/04/22 11:32:52;;;;;;;7.50;4.43;;;20.70;99.90;;;;;;5073977;28;20059;-84
2023/04/22 11:35:21;;;;;;;6.20;4.57;;;20.70;99.90;;;;;;5073699;28;20507;-84
2023/04/22 11:37:57;;;;;;;5.72;4.35;;;20.60;99.90;;;;;;5073487;28;20066;-84
2023/04/22 11:40:28;;;;;;;6.65;4.50;;;20.50;99.90;;;;;;5056530;28;20103;-84
2023/04/22 11:42:55;;;;;;;6.75;4.50;;;20.50;99.90;;;;;;5073111;28;20044;-84
2023/04/22 11:45:20;;;;;;;5.20;4.07;;;20.60;99.90;;;;;;5072497;28;20044;-84
2023/04/22 11:47:50;;;;;;;5.45;4.35;;;20.30;99.90;;;;;;5073526;28;20056;-84
2023/04/22 11:50:17;;;;;;;7.97;4.93;;;20.10;99.90;;;;;;5071860;28;20056;-84
2023/04/22 11:52:57;;;;;;;6.80;5.10;;;19.90;99.90;;;;;;5073337;28;20085;-84
2023/04/22 11:55:25;;;;;;;6.10;4.72;;;19.90;99.90;;;;;;5072351;28;20056;-84
2023/04/22 11:57:59;;;;;;;6.00;4.50;;;20.00;99.90;;;;;;5072421;28;20041;-84
2023/04/22 12:00:30;;;;;;;6.15;4.78;;;20.20;99.90;;;;;;5073244;28;20123;-84
2023/04/22 12:03:00;;;;;;;7.22;5.22;;;20.40;99.90;;;;;;5073430;28;20442;-84
2023/04/22 12:05:59;;;;;;;6.50;4.90;;;20.70;99.90;;;;;;5073417;28;20052;-84
2023/04/22 12:08:39;;;;;;;5.65;4.20;;;20.80;99.90;;;;;;5039654;28;20063;-84
2023/04/22 12:11:06;;;;;;;6.60;4.78;;;20.90;99.90;;;;;;5056652;28;20054;-84
2023/04/22 12:13:40;;;;;;;7.90;4.57;;;21.40;99.90;;;;;;5073156;28;20053;-84
2023/04/22 12:16:13;;;;;;;7.38;5.05;;;21.10;99.90;;;;;;5073479;28;20056;-83
2023/04/22 12:18:53;;;;;;;7.95;4.60;;;21.30;99.90;;;;;;5073208;28;20174;-84
2023/04/22 12:21:23;;;;;;;6.70;4.63;;;21.00;99.90;;;;;;5072513;28;20098;-84
2023/04/22 12:23:51;;;;;;;8.05;4.80;;;20.90;99.90;;;;;;5055541;28;20052;-84
2023/04/22 12:26:19;;;;;;;7.03;5.22;;;21.10;99.90;;;;;;5071833;28;20500;-84
2023/04/22 12:28:45;;;;;;;7.72;5.28;;;21.40;99.90;;;;;;5073551;28;20048;-84
2023/04/22 12:31:13;;;;;;;8.93;4.57;;;21.30;99.90;;;;;;5072976;28;20140;-84
2023/04/22 12:33:39;;;;;;;8.50;4.15;;;21.10;99.90;;;;;;5076958;28;20396;-84
2023/04/22 12:36:06;;;;;;;8.40;4.45;;;21.00;99.90;;;;;;5076849;28;20082;-85
2023/04/22 12:38:32;;;;;;;7.70;4.72;;;21.10;99.90;;;;;;5075707;28;20051;-84
2023/04/22 12:40:58;;;;;;;12.13;4.30;;;21.30;99.90;;;;;;5077300;28;20051;-83
2023/04/22 12:43:24;;;;;;;6.67;4.23;;;21.60;99.90;;;;;;5076059;28;20048;-85